Time;durP1;ratioP1;P1;durP2;ratioP2;P2;SDS_P1;SDS_P2;PMS_P1;PMS_P2;Temp;Humidity;BMP_temperature;BMP_pressure;BME280_temperature;BME280_humidity;BME280_pressure;Samples;Min_cycle;Max_cycle;Signal;HPM_P1;HPM_P2
2022/05/11 00:00:28;;;;;;;4.53;4.20;;;;;;;;;;6145649;23;20722;-89
2022/05/11 00:10:13;;;;;;;;;;;;;;;;;;;;;
2022/05/11 00:17:00;;;;;;;;;;;;;;;;;;;;;
2022/05/11 00:19:56;;;;;;;3.97;3.83;;;;;;;;;;6117521;23;20378;-91
2022/05/11 00:23:09;;;;;;;3.93;3.83;;;;;;;;;;6119120;23;20448;-89
2022/05/11 00:26:20;;;;;;;;;;;;;;;;;;;;;
2022/05/11 00:32:31;;;;;;;5.00;4.70;;;;;;;;;;6118053;23;20380;-89
2022/05/11 01:02:26;;;;;;;4.80;4.00;;;;;;;;;;6139192;23;20517;-90
2022/05/11 01:05:38;;;;;;;4.93;3.83;;;;;;;;;;6146239;23;20416;-89
2022/05/11 01:08:57;;;;;;;;;;;;;;;;;;;;;
2022/05/11 01:12:00;;;;;;;;;;;;;;;;;;;;;
2022/05/11 01:18:19;;;;;;;4.40;4.20;;;;;;;;;;6118239;23;20399;-94
2022/05/11 01:20:51;;;;;;;4.30;4.10;;;;;;;;;;6175148;23;20426;-92
2022/05/11 02:51:03;;;;;;;5.07;4.67;;;;;;;;;;6334438;22;20379;-91
2022/05/11 02:54:08;;;;;;;5.53;4.80;;;;;;;;;;6118295;23;20371;-93
2022/05/11 03:18:12;;;;;;;3.80;3.60;;;;;;;;;;6275630;22;20890;-92
2022/05/11 03:27:10;;;;;;;4.33;3.93;;;;;;;;;;6333234;22;20358;-91
2022/05/11 03:30:27;;;;;;;3.73;3.43;;;;;;;;;;6332323;22;20364;-92
2022/05/11 03:36:52;;;;;;;3.87;3.67;;;;;;;;;;6334534;22;20593;-91
2022/05/11 03:40:08;;;;;;;;;;;;;;;;;;;;;
2022/05/11 03:43:20;;;;;;;3.97;3.73;;;;;;;;;;6302578;22;20787;-91
2022/05/11 04:08:49;;;;;;;5.90;3.77;;;;;;;;;;6309175;22;20475;-91
2022/05/11 04:14:27;;;;;;;7.47;4.77;;;;;;;;;;6257532;22;20592;-91
2022/05/11 04:23:17;;;;;;;4.00;3.70;;;;;;;;;;6193984;22;20529;-93
2022/05/11 04:46:27;;;;;;;9.13;4.43;;;;;;;;;;6260810;22;21148;-93
2022/05/11 04:59:01;;;;;;;4.40;4.20;;;;;;;;;;6328826;22;20431;-90
2022/05/11 05:02:09;;;;;;;4.07;3.87;;;;;;;;;;6328581;22;20399;-91
2022/05/11 05:13:03;;;;;;;4.77;4.13;;;;;;;;;;6212299;22;20419;-92
2022/05/11 05:24:31;;;;;;;5.30;5.07;;;;;;;;;;6106546;23;20534;-94
2022/05/11 05:27:39;;;;;;;5.03;4.70;;;;;;;;;;6111377;23;20408;-92
2022/05/11 05:31:08;;;;;;;5.30;4.97;;;;;;;;;;6129324;23;20495;-91
2022/05/11 05:34:18;;;;;;;6.87;4.40;;;;;;;;;;6139415;23;20408;-91
2022/05/11 05:37:57;;;;;;;6.23;5.23;;;;;;;;;;6125882;23;20541;-91
2022/05/11 05:43:40;;;;;;;5.33;4.73;;;;;;;;;;6131563;23;20467;-92
2022/05/11 05:46:59;;;;;;;6.30;5.27;;;;;;;;;;6133816;23;20393;-90
2022/05/11 05:50:05;;;;;;;5.23;4.80;;;;;;;;;;6137293;23;20413;-89
2022/05/11 05:53:11;;;;;;;5.17;4.70;;;;;;;;;;6136522;23;20438;-92
2022/05/11 05:56:17;;;;;;;5.17;4.70;;;;;;;;;;6137871;23;20388;-91
2022/05/11 05:59:23;;;;;;;4.67;4.50;;;;;;;;;;6142414;23;20380;-92
2022/05/11 06:02:29;;;;;;;5.17;4.77;;;;;;;;;;6155377;23;21200;-86
2022/05/11 06:08:18;;;;;;;7.90;6.97;;;;;;;;;;6267539;22;20452;-93
2022/05/11 06:11:32;;;;;;;7.37;6.77;;;;;;;;;;6285918;22;20451;-94
2022/05/11 06:14:45;;;;;;;6.80;6.30;;;;;;;;;;6290571;22;20444;-91
2022/05/11 06:20:24;;;;;;;6.77;6.47;;;;;;;;;;6223808;22;20449;-91
2022/05/11 06:23:32;;;;;;;8.20;7.50;;;;;;;;;;6289040;22;20428;-92
2022/05/11 06:26:38;;;;;;;8.50;7.57;;;;;;;;;;6239047;22;20454;-93
2022/05/11 06:29:46;;;;;;;7.93;7.13;;;;;;;;;;6272146;22;20437;-91
2022/05/11 06:32:55;;;;;;;8.43;7.53;;;;;;;;;;6262061;22;20459;-89
2022/05/11 06:36:02;;;;;;;8.90;8.00;;;;;;;;;;6292930;22;20395;-92
2022/05/11 06:41:40;;;;;;;8.03;7.60;;;;;;;;;;6285777;22;20467;-91
2022/05/11 06:44:51;;;;;;;9.30;8.50;;;;;;;;;;6295679;22;20408;-89
2022/05/11 06:47:53;;;;;;;8.23;7.53;;;;;;;;;;6295935;22;20541;-92
2022/05/11 06:51:00;;;;;;;8.63;7.70;;;;;;;;;;6296335;22;20377;-88
2022/05/11 07:00:11;;;;;;;10.50;9.70;;;;;;;;;;6260522;23;20416;-91
2022/05/11 07:14:47;;;;;;;9.80;9.10;;;;;;;;;;6145877;23;20392;-92
2022/05/11 07:23:28;;;;;;;8.37;7.87;;;;;;;;;;6296436;22;20443;-90
2022/05/11 07:25:56;;;;;;;9.17;8.47;;;;;;;;;;6269975;22;20433;-88
2022/05/11 07:30:58;;;;;;;7.40;6.90;;;;;;;;;;6299999;22;20441;-89
2022/05/11 07:33:28;;;;;;;7.60;6.90;;;;;;;;;;6295089;22;20439;-89
2022/05/11 07:41:06;;;;;;;4.07;3.97;;;;;;;;;;6266228;22;20455;-88
2022/05/11 07:43:36;;;;;;;5.40;5.00;;;;;;;;;;6277206;22;20428;-86
2022/05/11 07:46:02;;;;;;;5.10;4.80;;;;;;;;;;6280464;22;20381;-86
2022/05/11 07:49:10;;;;;;;7.40;5.80;;;;;;;;;;6275043;22;20381;-87
2022/05/11 07:52:15;;;;;;;4.53;4.23;;;;;;;;;;6271698;22;20885;-87
2022/05/11 07:55:24;;;;;;;4.03;3.97;;;;;;;;;;6273720;22;20400;-90
2022/05/11 08:01:32;;;;;;;4.43;4.23;;;;;;;;;;6274104;22;20426;-88
2022/05/11 08:04:44;;;;;;;4.70;4.37;;;;;;;;;;6271276;22;20480;-89
2022/05/11 08:07:52;;;;;;;5.60;3.77;;;;;;;;;;6273929;22;20424;-89
2022/05/11 08:11:00;;;;;;;3.10;2.90;;;;;;;;;;6269013;22;20388;-89
2022/05/11 08:13:49;;;;;;;3.60;3.50;;;;;;;;;;6270905;22;20422;-89
2022/05/11 08:16:15;;;;;;;3.67;3.57;;;;;;;;;;6168492;22;20388;-89
2022/05/11 08:18:41;;;;;;;3.00;2.80;;;;;;;;;;6271068;22;20397;-89
2022/05/11 08:21:09;;;;;;;3.23;3.07;;;;;;;;;;6165988;22;20401;-89
2022/05/11 08:23:35;;;;;;;3.37;3.17;;;;;;;;;;6165118;22;20436;-86
2022/05/11 08:26:01;;;;;;;2.27;2.17;;;;;;;;;;6171333;22;20388;-88
2022/05/11 08:28:27;;;;;;;2.87;2.67;;;;;;;;;;6169267;22;20711;-90
2022/05/11 08:33:44;;;;;;;3.33;2.20;;;;;;;;;;6281197;22;20959;-89
2022/05/11 08:36:16;;;;;;;2.40;2.30;;;;;;;;;;6282157;22;20388;-85
2022/05/11 08:38:44;;;;;;;2.60;2.40;;;;;;;;;;6168806;22;20389;-89
2022/05/11 08:41:13;;;;;;;2.87;2.60;;;;;;;;;;6173279;22;20428;-88
2022/05/11 08:43:40;;;;;;;2.67;2.57;;;;;;;;;;6182526;22;20461;-89
2022/05/11 08:46:14;;;;;;;3.00;2.90;;;;;;;;;;6176611;22;20754;-90
2022/05/11 08:48:59;;;;;;;2.60;2.60;;;;;;;;;;6176064;22;20384;-88
2022/05/11 08:51:38;;;;;;;2.33;2.23;;;;;;;;;;6282691;22;20368;-87
2022/05/11 08:54:10;;;;;;;2.83;2.70;;;;;;;;;;6191425;22;20408;-93
2022/05/11 08:56:40;;;;;;;2.90;2.70;;;;;;;;;;6258804;22;20444;-92
2022/05/11 08:59:30;;;;;;;;;;;;;;;;;;;;;
2022/05/11 09:02:09;;;;;;;2.67;2.57;;;;;;;;;;6287471;22;20399;-90
2022/05/11 09:04:47;;;;;;;2.63;2.63;;;;;;;;;;6267779;22;20387;-91
2022/05/11 09:07:15;;;;;;;2.67;2.57;;;;;;;;;;6274086;22;20407;-91
2022/05/11 09:09:42;;;;;;;3.17;2.97;;;;;;;;;;6328403;22;20387;-89
2022/05/11 09:12:10;;;;;;;2.80;2.80;;;;;;;;;;6329807;22;20442;-92
2022/05/11 09:14:38;;;;;;;7.20;2.83;;;;;;;;;;6330956;22;20407;-91
2022/05/11 09:17:06;;;;;;;3.30;3.17;;;;;;;;;;6302276;22;20407;-90
2022/05/11 09:19:40;;;;;;;3.50;3.23;;;;;;;;;;6306805;22;20427;-90
2022/05/11 09:22:38;;;;;;;2.70;2.70;;;;;;;;;;6328541;22;20515;-94
2022/05/11 09:27:43;;;;;;;3.10;3.00;;;;;;;;;;6284353;22;20462;-91
2022/05/11 09:33:08;;;;;;;3.33;3.23;;;;;;;;;;6143158;23;20439;-89
2022/05/11 09:35:36;;;;;;;3.53;3.33;;;;;;;;;;6139633;23;20376;-88
2022/05/11 09:38:26;;;;;;;;;;;;;;;;;;;;;
2022/05/11 09:40:57;;;;;;;3.67;3.47;;;;;;;;;;6159983;23;20384;-90
2022/05/11 09:43:50;;;;;;;;;;;;;;;;;;;;;
2022/05/11 09:51:54;;;;;;;3.53;3.53;;;;;;;;;;6160358;22;20454;-93
2022/05/11 09:54:23;;;;;;;4.50;3.70;;;;;;;;;;6167720;23;20422;-89
2022/05/11 09:57:00;;;;;;;4.27;4.07;;;;;;;;;;6169651;22;20868;-92
2022/05/11 09:59:41;;;;;;;3.93;3.83;;;;;;;;;;6172697;23;20426;-91
2022/05/11 10:02:25;;;;;;;4.70;4.40;;;;;;;;;;6160811;22;20448;-92
2022/05/11 10:04:55;;;;;;;3.97;3.87;;;;;;;;;;6170525;23;20364;-88
2022/05/11 10:07:24;;;;;;;4.67;4.27;;;;;;;;;;6163500;23;20405;-88
2022/05/11 10:09:55;;;;;;;3.73;3.73;;;;;;;;;;6140436;23;20439;-91
2022/05/11 10:12:27;;;;;;;3.90;3.67;;;;;;;;;;6140879;22;20947;-92
2022/05/11 10:23:29;;;;;;;3.60;3.30;;;;;;;;;;6142230;23;20496;-92
2022/05/11 10:26:13;;;;;;;3.70;3.60;;;;;;;;;;6116054;22;20438;-91
2022/05/11 10:31:29;;;;;;;3.30;3.30;;;;;;;;;;6208300;22;20450;-91
2022/05/11 10:34:05;;;;;;;3.70;3.40;;;;;;;;;;6174866;23;20376;-89
2022/05/11 10:36:37;;;;;;;4.40;4.30;;;;;;;;;;6180665;23;20474;-90
2022/05/11 10:42:15;;;;;;;4.20;3.97;;;;;;;;;;6162369;22;20486;-90
2022/05/11 10:45:08;;;;;;;7.10;3.60;;;;;;;;;;6172471;23;20451;-90
2022/05/11 10:48:25;;;;;;;3.93;3.83;;;;;;;;;;6161734;22;20550;-90
2022/05/11 10:51:11;;;;;;;5.60;5.20;;;;;;;;;;6158400;23;21048;-93
2022/05/11 10:54:26;;;;;;;4.97;4.40;;;;;;;;;;6157597;23;20419;-90
2022/05/11 10:57:32;;;;;;;3.80;3.60;;;;;;;;;;6156327;23;20384;-87
2022/05/11 11:00:38;;;;;;;3.63;2.87;;;;;;;;;;6155188;23;20414;-92
2022/05/11 11:03:27;;;;;;;3.70;3.40;;;;;;;;;;6152862;23;20435;-89
2022/05/11 11:09:45;;;;;;;4.20;3.90;;;;;;;;;;6126020;23;20400;-90
2022/05/11 11:12:31;;;;;;;4.80;4.50;;;;;;;;;;6130121;23;20443;-92
2022/05/11 11:15:37;;;;;;;3.30;3.13;;;;;;;;;;6126276;23;20390;-91
2022/05/11 11:19:08;;;;;;;;;;;;;;;;;;;;;
2022/05/11 11:22:06;;;;;;;3.37;3.07;;;;;;;;;;6161768;23;20390;-90
2022/05/11 11:25:12;;;;;;;3.50;3.40;;;;;;;;;;6127839;23;21089;-90
2022/05/11 11:28:03;;;;;;;3.70;3.50;;;;;;;;;;6125549;23;20415;-91
2022/05/11 11:31:01;;;;;;;6.43;3.80;;;;;;;;;;6122521;23;20389;-91
2022/05/11 11:36:28;;;;;;;4.10;4.00;;;;;;;;;;6123625;22;20472;-92
2022/05/11 11:39:34;;;;;;;3.90;3.60;;;;;;;;;;6122225;23;20930;-86
2022/05/11 11:42:49;;;;;;;3.97;3.63;;;;;;;;;;6121832;23;20433;-89
2022/05/11 11:45:39;;;;;;;4.07;3.67;;;;;;;;;;6124162;23;20389;-91
2022/05/11 11:48:45;;;;;;;3.50;3.40;;;;;;;;;;6128992;23;20390;-91
2022/05/11 11:51:54;;;;;;;6.80;3.43;;;;;;;;;;6128490;23;20393;-91
2022/05/11 11:54:47;;;;;;;3.30;3.20;;;;;;;;;;6126223;23;20868;-90
2022/05/11 11:57:52;;;;;;;3.70;3.57;;;;;;;;;;6129870;23;20424;-91
2022/05/11 12:00:47;;;;;;;3.40;3.17;;;;;;;;;;6131967;23;20377;-89
2022/05/11 12:16:01;;;;;;;3.50;3.40;;;;;;;;;;6168341;23;20387;-91
2022/05/11 12:19:07;;;;;;;3.77;3.30;;;;;;;;;;6166622;23;20387;-93
2022/05/11 12:22:13;;;;;;;3.27;3.17;;;;;;;;;;6167603;23;20392;-93
2022/05/11 12:25:23;;;;;;;3.03;3.03;;;;;;;;;;6167259;23;20471;-91
2022/05/11 12:28:40;;;;;;;3.13;3.03;;;;;;;;;;6168479;22;20407;-93
2022/05/11 12:31:47;;;;;;;3.97;3.77;;;;;;;;;;6168770;23;20423;-94
2022/05/11 12:40:31;;;;;;;3.20;3.10;;;;;;;;;;6199510;23;20444;-94
2022/05/11 12:43:54;;;;;;;4.80;3.60;;;;;;;;;;6173280;22;20527;-92
2022/05/11 12:47:01;;;;;;;3.50;3.37;;;;;;;;;;6166270;23;20396;-93
2022/05/11 12:50:09;;;;;;;3.43;3.33;;;;;;;;;;6167525;23;20381;-92
2022/05/11 12:53:16;;;;;;;3.53;3.33;;;;;;;;;;6168945;23;20399;-91
2022/05/11 12:56:24;;;;;;;6.30;3.90;;;;;;;;;;6161929;22;20389;-93
2022/05/11 12:59:33;;;;;;;4.33;3.40;;;;;;;;;;6164760;22;20466;-93
2022/05/11 13:02:51;;;;;;;;;;;;;;;;;;;;;
2022/05/11 13:05:51;;;;;;;5.10;4.00;;;;;;;;;;6134947;22;20447;-92
2022/05/11 13:14:13;;;;;;;3.63;3.57;;;;;;;;;;6165090;22;20476;-93
2022/05/11 13:17:19;;;;;;;8.70;4.50;;;;;;;;;;6167243;23;20545;-93
2022/05/11 13:20:46;;;;;;;4.30;4.00;;;;;;;;;;6166524;22;20402;-89
2022/05/11 13:32:37;;;;;;;3.73;3.63;;;;;;;;;;6113593;23;20381;-94
2022/05/11 13:35:35;;;;;;;4.00;3.70;;;;;;;;;;6111142;23;21299;-89
2022/05/11 13:38:34;;;;;;;4.40;4.20;;;;;;;;;;6083667;23;20391;-90
2022/05/11 13:41:42;;;;;;;4.93;4.00;;;;;;;;;;6136056;22;20479;-91
2022/05/11 13:45:04;;;;;;;3.67;3.57;;;;;;;;;;6172174;22;20446;-91
2022/05/11 13:51:16;;;;;;;5.03;4.73;;;;;;;;;;6169221;23;20403;-89
2022/05/11 13:54:26;;;;;;;;;;;;;;;;;;;;;
2022/05/11 13:57:29;;;;;;;4.40;4.20;;;;;;;;;;6160014;22;20448;-90
2022/05/11 14:05:46;;;;;;;4.23;3.97;;;;;;;;;;6169738;22;20443;-93
2022/05/11 14:11:29;;;;;;;4.00;3.80;;;;;;;;;;6154047;22;20490;-91
2022/05/11 14:32:12;;;;;;;;;;;;;;;;;;;;;
2022/05/11 14:43:26;;;;;;;4.10;3.90;;;;;;;;;;6160489;22;20464;-89
2022/05/11 14:49:42;;;;;;;4.60;4.23;;;;;;;;;;6234910;22;20472;-87
2022/05/11 14:52:57;;;;;;;3.77;3.37;;;;;;;;;;6169564;22;20407;-93
2022/05/11 14:55:57;;;;;;;10.97;3.80;;;;;;;;;;6168731;23;20408;-92
2022/05/11 15:13:45;;;;;;;3.77;3.57;;;;;;;;;;6317083;22;20449;-92
2022/05/11 15:17:01;;;;;;;3.27;3.07;;;;;;;;;;6324896;22;20400;-93
2022/05/11 15:20:24;;;;;;;3.63;3.33;;;;;;;;;;6326576;22;20406;-93
2022/05/11 15:23:12;;;;;;;4.10;3.90;;;;;;;;;;6326398;22;20451;-91
2022/05/11 15:29:01;;;;;;;3.77;2.53;;;;;;;;;;6205076;22;20451;-94
2022/05/11 15:40:17;;;;;;;3.17;3.00;;;;;;;;;;6194492;23;20526;-89
2022/05/11 15:43:24;;;;;;;3.20;3.10;;;;;;;;;;6202598;23;20446;-94
2022/05/11 15:46:32;;;;;;;3.23;2.50;;;;;;;;;;6188012;22;20375;-87
2022/05/11 15:49:44;;;;;;;2.70;2.60;;;;;;;;;;6189446;22;20563;-89
2022/05/11 15:52:56;;;;;;;5.20;2.83;;;;;;;;;;6169593;23;20395;-93
2022/05/11 15:56:08;;;;;;;3.40;2.87;;;;;;;;;;6171183;23;20383;-91
2022/05/11 15:59:16;;;;;;;5.53;2.30;;;;;;;;;;6171708;22;20459;-94
2022/05/11 16:02:05;;;;;;;6.37;2.37;;;;;;;;;;6167806;23;20373;-89
2022/05/11 16:05:16;;;;;;;3.93;2.43;;;;;;;;;;6170986;23;20372;-94
2022/05/11 16:08:23;;;;;;;2.30;2.30;;;;;;;;;;6167358;23;20434;-88
2022/05/11 16:11:31;;;;;;;1.60;1.60;;;;;;;;;;6167752;23;20948;-93
2022/05/11 16:14:38;;;;;;;2.13;1.70;;;;;;;;;;6166010;23;20388;-88
2022/05/11 16:20:52;;;;;;;2.30;2.30;;;;;;;;;;6165463;23;20388;-89
2022/05/11 16:23:56;;;;;;;2.37;2.37;;;;;;;;;;6160875;23;20427;-91
2022/05/11 16:27:02;;;;;;;3.40;2.23;;;;;;;;;;6164807;23;20373;-89
2022/05/11 16:30:07;;;;;;;2.33;2.10;;;;;;;;;;6167092;23;20372;-90
2022/05/11 16:33:13;;;;;;;3.40;3.20;;;;;;;;;;6173510;22;20392;-88
2022/05/11 16:58:32;;;;;;;2.50;2.40;;;;;;;;;;6233854;23;20446;-91
2022/05/11 17:10:00;;;;;;;4.20;2.10;;;;;;;;;;6166136;23;20444;-88
2022/05/11 17:12:26;;;;;;;2.40;2.20;;;;;;;;;;6140301;23;20448;-90
2022/05/11 17:14:54;;;;;;;1.83;1.73;;;;;;;;;;6149722;23;20466;-89
2022/05/11 17:17:58;;;;;;;2.00;1.90;;;;;;;;;;6134594;23;20994;-91
2022/05/11 17:21:04;;;;;;;2.53;2.40;;;;;;;;;;6023111;23;20396;-91
2022/05/11 17:24:10;;;;;;;4.93;2.50;;;;;;;;;;6038085;23;20517;-90
2022/05/11 17:27:19;;;;;;;2.17;1.90;;;;;;;;;;6161000;23;20407;-90
2022/05/11 17:30:25;;;;;;;1.90;1.90;;;;;;;;;;6161841;23;20383;-91
2022/05/11 17:33:31;;;;;;;2.70;2.10;;;;;;;;;;6165292;23;20404;-92
2022/05/11 17:36:23;;;;;;;3.80;2.27;;;;;;;;;;6171818;23;20403;-90
2022/05/11 17:38:51;;;;;;;2.80;2.60;;;;;;;;;;6144560;23;20494;-90
2022/05/11 17:41:20;;;;;;;3.80;2.37;;;;;;;;;;6144763;22;20407;-89
2022/05/11 17:43:46;;;;;;;6.37;2.20;;;;;;;;;;6145528;23;20462;-90
2022/05/11 17:46:14;;;;;;;4.73;2.50;;;;;;;;;;6142979;23;20393;-89
2022/05/11 17:48:40;;;;;;;2.63;2.30;;;;;;;;;;6145163;23;20398;-88
2022/05/11 17:51:07;;;;;;;2.50;2.40;;;;;;;;;;6169494;22;20491;-91
2022/05/11 17:53:38;;;;;;;2.47;2.27;;;;;;;;;;6168279;23;20388;-89
2022/05/11 17:56:04;;;;;;;3.23;2.93;;;;;;;;;;6140149;23;20758;-88
2022/05/11 18:27:45;;;;;;;;;;;;;;;;;;;;;
2022/05/11 18:30:47;;;;;;;4.90;2.90;;;;;;;;;;6184785;22;20464;-93
2022/05/11 18:36:29;;;;;;;5.33;1.97;;;;;;;;;;6118631;22;20389;-92
2022/05/11 19:21:02;;;;;;;2.10;2.00;;;;;;;;;;6153581;22;20536;-93
2022/05/11 19:23:51;;;;;;;3.03;2.40;;;;;;;;;;6159865;23;20482;-93
2022/05/11 19:26:58;;;;;;;2.60;2.50;;;;;;;;;;6163022;23;20396;-93
2022/05/11 19:30:06;;;;;;;3.03;2.67;;;;;;;;;;6154371;23;20424;-93
2022/05/11 19:33:12;;;;;;;1.97;1.97;;;;;;;;;;6154088;23;20427;-93
2022/05/11 19:36:18;;;;;;;2.60;2.40;;;;;;;;;;6151945;23;20373;-93
2022/05/11 19:39:25;;;;;;;1.93;1.83;;;;;;;;;;6156512;23;20392;-93
2022/05/11 19:42:37;;;;;;;2.30;2.20;;;;;;;;;;6165995;23;20384;-93
2022/05/11 19:45:43;;;;;;;2.13;2.00;;;;;;;;;;6162745;23;20399;-93
2022/05/11 19:48:49;;;;;;;2.90;2.33;;;;;;;;;;6161991;23;20860;-92
2022/05/11 19:51:54;;;;;;;2.50;1.97;;;;;;;;;;6151849;23;20410;-92
2022/05/11 19:55:00;;;;;;;5.90;2.30;;;;;;;;;;6155240;23;20391;-93
2022/05/11 19:58:06;;;;;;;1.83;1.73;;;;;;;;;;6154022;23;21087;-92
2022/05/11 20:01:12;;;;;;;2.53;2.10;;;;;;;;;;6160538;23;20404;-93
2022/05/11 20:04:18;;;;;;;3.40;1.80;;;;;;;;;;6161487;23;20812;-92
2022/05/11 20:07:26;;;;;;;7.10;2.30;;;;;;;;;;6161388;23;20426;-94
2022/05/11 20:10:33;;;;;;;4.33;2.07;;;;;;;;;;6157525;23;20412;-91
2022/05/11 20:13:39;;;;;;;4.90;4.40;;;;;;;;;;6163923;23;20451;-92
2022/05/11 20:16:45;;;;;;;2.50;2.40;;;;;;;;;;6165553;23;20388;-92
2022/05/11 20:19:50;;;;;;;2.80;2.23;;;;;;;;;;6163459;23;20407;-93
2022/05/11 20:23:03;;;;;;;3.30;2.23;;;;;;;;;;6164987;23;20452;-93
2022/05/11 20:29:20;;;;;;;3.00;2.67;;;;;;;;;;6170239;22;20515;-92
2022/05/11 20:43:23;;;;;;;5.77;3.07;;;;;;;;;;6171560;23;20447;-93
2022/05/11 20:46:35;;;;;;;7.20;2.67;;;;;;;;;;6170937;22;20399;-93
2022/05/11 20:49:42;;;;;;;6.70;3.13;;;;;;;;;;6162675;23;20396;-95
2022/05/11 20:52:52;;;;;;;8.10;3.30;;;;;;;;;;6167304;23;20403;-96
2022/05/11 21:02:39;;;;;;;;;;;;;;;;;;;;;
2022/05/11 21:05:38;;;;;;;7.57;3.40;;;;;;;;;;6161422;23;20422;-94
2022/05/11 21:08:49;;;;;;;3.83;2.90;;;;;;;;;;6169792;23;20384;-95
2022/05/11 21:12:01;;;;;;;5.07;2.60;;;;;;;;;;6177670;23;20383;-96
2022/05/11 21:15:29;;;;;;;7.40;3.10;;;;;;;;;;6159270;23;20380;-95
2022/05/11 21:18:54;;;;;;;8.40;3.60;;;;;;;;;;6155008;23;20409;-95
2022/05/11 21:40:40;;;;;;;3.40;3.07;;;;;;;;;;6165301;22;20470;-92
2022/05/11 21:43:47;;;;;;;3.60;2.80;;;;;;;;;;6172552;23;20491;-95
2022/05/11 21:47:03;;;;;;;10.40;3.27;;;;;;;;;;6173025;23;20416;-96
2022/05/11 21:50:13;;;;;;;4.63;3.10;;;;;;;;;;6172696;23;20390;-94
2022/05/11 21:53:12;;;;;;;8.10;4.00;;;;;;;;;;6168947;23;20441;-95
2022/05/11 21:56:26;;;;;;;6.00;2.97;;;;;;;;;;6168559;23;20360;-94
2022/05/11 21:59:41;;;;;;;3.70;2.80;;;;;;;;;;6171033;22;20417;-96
2022/05/11 22:02:47;;;;;;;2.83;2.63;;;;;;;;;;6172153;23;20384;-96
2022/05/11 22:11:03;;;;;;;4.87;2.40;;;;;;;;;;6174337;23;20443;-95
2022/05/11 22:14:13;;;;;;;3.73;2.10;;;;;;;;;;6162534;23;20395;-95
2022/05/11 22:17:19;;;;;;;2.93;2.67;;;;;;;;;;6173298;23;20393;-94
2022/05/11 22:20:27;;;;;;;4.77;3.10;;;;;;;;;;6166306;23;20399;-95
2022/05/11 22:23:32;;;;;;;2.00;1.90;;;;;;;;;;6161437;23;20915;-94
2022/05/11 22:26:43;;;;;;;4.17;2.00;;;;;;;;;;6166857;23;20887;-94
2022/05/11 22:29:46;;;;;;;5.07;2.70;;;;;;;;;;6164764;23;20454;-95
2022/05/11 22:32:57;;;;;;;2.10;2.00;;;;;;;;;;6169666;23;20388;-94
2022/05/11 22:36:02;;;;;;;4.70;2.23;;;;;;;;;;6168716;23;20392;-94
2022/05/11 22:39:10;;;;;;;3.23;2.47;;;;;;;;;;6167219;23;20384;-93
2022/05/11 22:42:14;;;;;;;3.93;1.80;;;;;;;;;;6168139;23;20437;-95
2022/05/11 22:45:20;;;;;;;10.17;3.10;;;;;;;;;;6168574;23;20416;-95
2022/05/11 22:48:28;;;;;;;7.63;3.13;;;;;;;;;;6164143;23;20391;-93
2022/05/11 22:51:35;;;;;;;5.60;3.90;;;;;;;;;;6158747;23;20418;-92
2022/05/11 22:54:40;;;;;;;5.53;4.43;;;;;;;;;;6171382;23;20388;-93
2022/05/11 22:57:46;;;;;;;6.33;4.20;;;;;;;;;;6170017;23;20394;-93
2022/05/11 23:00:52;;;;;;;6.10;4.20;;;;;;;;;;6171976;23;20391;-93
2022/05/11 23:03:58;;;;;;;7.10;4.73;;;;;;;;;;6171327;23;20447;-92
2022/05/11 23:07:03;;;;;;;6.73;5.27;;;;;;;;;;6169960;23;20384;-94
2022/05/11 23:10:10;;;;;;;5.70;5.30;;;;;;;;;;6172324;22;20431;-93
2022/05/11 23:13:15;;;;;;;7.10;6.50;;;;;;;;;;6168202;23;20395;-93
2022/05/11 23:16:21;;;;;;;8.33;5.60;;;;;;;;;;6166434;23;20388;-94
2022/05/11 23:19:27;;;;;;;5.80;5.30;;;;;;;;;;6155063;23;20423;-92
2022/05/11 23:22:33;;;;;;;6.47;5.97;;;;;;;;;;6169967;23;20376;-93
2022/05/11 23:25:39;;;;;;;6.43;5.90;;;;;;;;;;6166521;23;20400;-91
2022/05/11 23:28:44;;;;;;;6.53;5.47;;;;;;;;;;6172210;23;20388;-94
2022/05/11 23:31:50;;;;;;;5.27;5.07;;;;;;;;;;6174190;23;20395;-94
2022/05/11 23:34:56;;;;;;;5.63;5.30;;;;;;;;;;6163829;23;20388;-93
2022/05/11 23:38:02;;;;;;;9.93;5.27;;;;;;;;;;6156468;23;20716;-93
2022/05/11 23:41:08;;;;;;;9.73;6.33;;;;;;;;;;6155893;23;20408;-92
2022/05/11 23:44:08;;;;;;;6.23;5.60;;;;;;;;;;6154784;23;20436;-93
2022/05/11 23:46:36;;;;;;;8.17;5.80;;;;;;;;;;6105953;23;20376;-93
2022/05/11 23:49:03;;;;;;;5.83;5.23;;;;;;;;;;6128562;23;20427;-92
2022/05/11 23:51:28;;;;;;;6.80;5.53;;;;;;;;;;6129242;23;20407;-93
2022/05/11 23:53:54;;;;;;;6.20;5.60;;;;;;;;;;6155119;23;20384;-92
2022/05/11 23:56:20;;;;;;;6.27;5.70;;;;;;;;;;6129776;23;20404;-92
2022/05/11 23:58:46;;;;;;;5.97;5.53;;;;;;;;;;6141793;23;20380;-93
